sensor_id;sensor_type;location;lat;lon;timestamp;pressure;altitude;pressure_sealevel;temperature;humidity
73240;BME280;61452;40.054;4.110;2024-01-16T00:03:06;101291.06;;;15.43;100.00
73240;BME280;61452;40.054;4.110;2024-01-16T00:08:08;101278.66;;;15.43;100.00
73240;BME280;61452;40.054;4.110;2024-01-16T00:13:11;101272.28;;;15.47;100.00
73240;BME280;61452;40.054;4.110;2024-01-16T00:18:13;101282.94;;;15.46;100.00
73240;BME280;61452;40.054;4.110;2024-01-16T00:23:15;101283.88;;;15.45;100.00
73240;BME280;61452;40.054;4.110;2024-01-16T00:28:18;101270.72;;;15.43;100.00
73240;BME280;61452;40.054;4.110;2024-01-16T00:33:21;101276.63;;;15.48;100.00
73240;BME280;61452;40.054;4.110;2024-01-16T00:38:24;101266.41;;;15.42;100.00
73240;BME280;61452;40.054;4.110;2024-01-16T00:43:26;101265.44;;;15.43;100.00
73240;BME280;61452;40.054;4.110;2024-01-16T00:48:28;101257.16;;;15.49;100.00
73240;BME280;61452;40.054;4.110;2024-01-16T00:53:31;101265.28;;;15.46;100.00
73240;BME280;61452;40.054;4.110;2024-01-16T00:58:33;101262.94;;;15.42;100.00
73240;BME280;61452;40.054;4.110;2024-01-16T01:03:35;101273.50;;;15.42;100.00
73240;BME280;61452;40.054;4.110;2024-01-16T01:08:37;101273.50;;;15.42;100.00
73240;BME280;61452;40.054;4.110;2024-01-16T01:13:39;101262.94;;;15.42;100.00
73240;BME280;61452;40.054;4.110;2024-01-16T01:18:41;101271.72;;;15.42;100.00
73240;BME280;61452;40.054;4.110;2024-01-16T01:23:44;101261.97;;;15.43;100.00
73240;BME280;61452;40.054;4.110;2024-01-16T01:28:46;101250.06;;;15.50;100.00
73240;BME280;61452;40.054;4.110;2024-01-16T01:33:48;101267.16;;;15.44;100.00
73240;BME280;61452;40.054;4.110;2024-01-16T01:38:50;101263.56;;;15.45;100.00
73240;BME280;61452;40.054;4.110;2024-01-16T01:43:52;101268.09;;;15.43;100.00
73240;BME280;61452;40.054;4.110;2024-01-16T01:48:55;101267.28;;;15.43;100.00
73240;BME280;61452;40.054;4.110;2024-01-16T01:53:58;101263.47;;;15.47;100.00
73240;BME280;61452;40.054;4.110;2024-01-16T01:59:01;101254.50;;;15.49;100.00
73240;BME280;61452;40.054;4.110;2024-01-16T02:04:04;101250.06;;;15.50;100.00
73240;BME280;61452;40.054;4.110;2024-01-16T02:09:07;101252.06;;;15.46;100.00
73240;BME280;61452;40.054;4.110;2024-01-16T02:14:10;101252.72;;;15.50;100.00
73240;BME280;61452;40.054;4.110;2024-01-16T02:19:12;101258.00;;;15.50;100.00
73240;BME280;61452;40.054;4.110;2024-01-16T02:24:15;101257.53;;;15.43;100.00
73240;BME280;61452;40.054;4.110;2024-01-16T02:29:18;101254.63;;;15.48;100.00
73240;BME280;61452;40.054;4.110;2024-01-16T02:34:21;101253.38;;;15.39;100.00
73240;BME280;61452;40.054;4.110;2024-01-16T02:39:23;101245.06;;;15.45;100.00
73240;BME280;61452;40.054;4.110;2024-01-16T02:44:25;101242.25;;;15.48;100.00
73240;BME280;61452;40.054;4.110;2024-01-16T02:49:27;101243.47;;;15.43;100.00
73240;BME280;61452;40.054;4.110;2024-01-16T02:54:30;101249.72;;;15.42;100.00
73240;BME280;61452;40.054;4.110;2024-01-16T02:59:32;101237.34;;;15.42;100.00
73240;BME280;61452;40.054;4.110;2024-01-16T03:04:34;101237.44;;;15.41;100.00
73240;BME280;61452;40.054;4.110;2024-01-16T03:09:36;101246.59;;;15.35;100.00
73240;BME280;61452;40.054;4.110;2024-01-16T03:14:38;101246.00;;;15.44;100.00
73240;BME280;61452;40.054;4.110;2024-01-16T03:19:41;101246.22;;;15.41;100.00
73240;BME280;61452;40.054;4.110;2024-01-16T03:24:43;101254.22;;;15.39;100.00
73240;BME280;61452;40.054;4.110;2024-01-16T03:29:45;101267.53;;;15.38;100.00
73240;BME280;61452;40.054;4.110;2024-01-16T03:34:47;101251.78;;;15.36;100.00
73240;BME280;61452;40.054;4.110;2024-01-16T03:39:49;101253.47;;;15.37;100.00
73240;BME280;61452;40.054;4.110;2024-01-16T03:44:52;101258.88;;;15.36;100.00
73240;BME280;61452;40.054;4.110;2024-01-16T03:49:54;101256.09;;;15.37;100.00
73240;BME280;61452;40.054;4.110;2024-01-16T03:54:56;101241.88;;;15.40;100.00
73240;BME280;61452;40.054;4.110;2024-01-16T03:59:58;101244.59;;;15.38;100.00
73240;BME280;61452;40.054;4.110;2024-01-16T04:05:00;101247.31;;;15.37;100.00
73240;BME280;61452;40.054;4.110;2024-01-16T04:10:03;101244.69;;;15.37;100.00
73240;BME280;61452;40.054;4.110;2024-01-16T04:15:07;101239.38;;;15.37;100.00
73240;BME280;61452;40.054;4.110;2024-01-16T04:20:10;101240.06;;;15.41;100.00
73240;BME280;61452;40.054;4.110;2024-01-16T04:25:12;101240.94;;;15.41;100.00
73240;BME280;61452;40.054;4.110;2024-01-16T04:30:14;101239.78;;;15.45;100.00
73240;BME280;61452;40.054;4.110;2024-01-16T04:35:16;101236.38;;;15.43;100.00
73240;BME280;61452;40.054;4.110;2024-01-16T04:40:18;101225.91;;;15.42;100.00
73240;BME280;61452;40.054;4.110;2024-01-16T04:45:20;101221.75;;;15.37;100.00
73240;BME280;61452;40.054;4.110;2024-01-16T04:50:23;101213.94;;;15.36;100.00
73240;BME280;61452;40.054;4.110;2024-01-16T04:55:26;101198.94;;;15.36;100.00
73240;BME280;61452;40.054;4.110;2024-01-16T05:00:28;101196.94;;;15.40;100.00
73240;BME280;61452;40.054;4.110;2024-01-16T05:05:30;101189.94;;;15.39;100.00
73240;BME280;61452;40.054;4.110;2024-01-16T05:10:33;101194.28;;;15.40;100.00
73240;BME280;61452;40.054;4.110;2024-01-16T05:15:35;101197.09;;;15.37;100.00
73240;BME280;61452;40.054;4.110;2024-01-16T05:20:37;101197.22;;;15.35;100.00
73240;BME280;61452;40.054;4.110;2024-01-16T05:25:40;101177.78;;;15.36;100.00
73240;BME280;61452;40.054;4.110;2024-01-16T05:30:42;101178.72;;;15.35;100.00
73240;BME280;61452;40.054;4.110;2024-01-16T05:35:44;101166.34;;;15.36;100.00
73240;BME280;61452;40.054;4.110;2024-01-16T05:40:46;101170.66;;;15.37;100.00
73240;BME280;61452;40.054;4.110;2024-01-16T05:45:48;101172.38;;;15.38;100.00
73240;BME280;61452;40.054;4.110;2024-01-16T05:50:51;101168.88;;;15.37;100.00
73240;BME280;61452;40.054;4.110;2024-01-16T05:55:53;101178.59;;;15.37;100.00
73240;BME280;61452;40.054;4.110;2024-01-16T06:00:56;101182.69;;;15.43;100.00
73240;BME280;61452;40.054;4.110;2024-01-16T06:05:58;101181.91;;;15.41;100.00
73240;BME280;61452;40.054;4.110;2024-01-16T06:11:01;101183.06;;;15.36;100.00
73240;BME280;61452;40.054;4.110;2024-01-16T06:16:06;101198.81;;;15.38;100.00
73240;BME280;61452;40.054;4.110;2024-01-16T06:21:09;101193.81;;;15.33;100.00
73240;BME280;61452;40.054;4.110;2024-01-16T06:26:13;101182.38;;;15.33;100.00
73240;BME280;61452;40.054;4.110;2024-01-16T06:31:16;101195.50;;;15.34;100.00
73240;BME280;61452;40.054;4.110;2024-01-16T06:36:18;101205.22;;;15.34;100.00
73240;BME280;61452;40.054;4.110;2024-01-16T06:41:20;101204.94;;;15.38;100.00
73240;BME280;61452;40.054;4.110;2024-01-16T06:46:22;101201.28;;;15.41;100.00
73240;BME280;61452;40.054;4.110;2024-01-16T06:51:25;101200.34;;;15.42;100.00
73240;BME280;61452;40.054;4.110;2024-01-16T06:56:27;101202.13;;;15.42;100.00
73240;BME280;61452;40.054;4.110;2024-01-16T07:01:29;101204.94;;;15.38;100.00
73240;BME280;61452;40.054;4.110;2024-01-16T07:06:32;101219.78;;;15.41;100.00
73240;BME280;61452;40.054;4.110;2024-01-16T07:11:34;101221.56;;;15.41;100.00
73240;BME280;61452;40.054;4.110;2024-01-16T07:16:36;101222.03;;;15.33;100.00
73240;BME280;61452;40.054;4.110;2024-01-16T07:21:38;101219.00;;;15.39;100.00
73240;BME280;61452;40.054;4.110;2024-01-16T07:26:41;101220.63;;;15.42;100.00
73240;BME280;61452;40.054;4.110;2024-01-16T07:31:43;101225.06;;;15.41;100.00
73240;BME280;61452;40.054;4.110;2024-01-16T07:36:45;101219.22;;;15.36;100.00
73240;BME280;61452;40.054;4.110;2024-01-16T07:41:47;101219.09;;;15.37;100.00
73240;BME280;61452;40.054;4.110;2024-01-16T07:46:49;101225.25;;;15.38;100.00
73240;BME280;61452;40.054;4.110;2024-01-16T07:51:51;101218.16;;;15.38;100.00
73240;BME280;61452;40.054;4.110;2024-01-16T07:56:54;101226.84;;;15.41;100.00
73240;BME280;61452;40.054;4.110;2024-01-16T08:01:56;101232.06;;;15.42;100.00
73240;BME280;61452;40.054;4.110;2024-01-16T08:06:58;101220.88;;;15.37;100.00
73240;BME280;61452;40.054;4.110;2024-01-16T08:12:00;101220.72;;;15.40;100.00
73240;BME280;61452;40.054;4.110;2024-01-16T08:17:04;101218.44;;;15.34;100.00
73240;BME280;61452;40.054;4.110;2024-01-16T08:22:06;101233.09;;;15.39;100.00
73240;BME280;61452;40.054;4.110;2024-01-16T08:27:10;101240.16;;;15.39;100.00
73240;BME280;61452;40.054;4.110;2024-01-16T08:32:12;101243.75;;;15.38;100.00
73240;BME280;61452;40.054;4.110;2024-01-16T08:37:14;101248.94;;;15.39;100.00
73240;BME280;61452;40.054;4.110;2024-01-16T08:42:16;101241.78;;;15.42;100.00
73240;BME280;61452;40.054;4.110;2024-01-16T08:47:19;101262.06;;;15.41;100.00
73240;BME280;61452;40.054;4.110;2024-01-16T08:52:21;101247.16;;;15.40;100.00
73240;BME280;61452;40.054;4.110;2024-01-16T08:57:23;101269.22;;;15.39;100.00
73240;BME280;61452;40.054;4.110;2024-01-16T09:02:27;101266.50;;;15.41;100.00
73240;BME280;61452;40.054;4.110;2024-01-16T09:07:32;101265.66;;;15.40;100.00
73240;BME280;61452;40.054;4.110;2024-01-16T09:12:34;101269.16;;;15.41;100.00
73240;BME280;61452;40.054;4.110;2024-01-16T09:17:36;101270.00;;;15.41;100.00
73240;BME280;61452;40.054;4.110;2024-01-16T09:22:39;101272.72;;;15.39;100.00
73240;BME280;61452;40.054;4.110;2024-01-16T09:27:41;101268.28;;;15.40;100.00
73240;BME280;61452;40.054;4.110;2024-01-16T09:32:44;101271.78;;;15.41;100.00
73240;BME280;61452;40.054;4.110;2024-01-16T09:37:47;101277.00;;;15.42;100.00
73240;BME280;61452;40.054;4.110;2024-01-16T09:42:49;101258.09;;;15.34;100.00
73240;BME280;61452;40.054;4.110;2024-01-16T09:47:52;101266.88;;;15.34;100.00
73240;BME280;61452;40.054;4.110;2024-01-16T09:52:55;101271.03;;;15.38;100.00
73240;BME280;61452;40.054;4.110;2024-01-16T09:58:01;101276.13;;;15.42;100.00
73240;BME280;61452;40.054;4.110;2024-01-16T10:03:05;101288.50;;;15.41;100.00
73240;BME280;61452;40.054;4.110;2024-01-16T10:08:07;101299.16;;;15.39;100.00
73240;BME280;61452;40.054;4.110;2024-01-16T10:13:09;101291.06;;;15.43;100.00
73240;BME280;61452;40.054;4.110;2024-01-16T10:18:22;101279.63;;;15.42;100.00
73240;BME280;61452;40.054;4.110;2024-01-16T10:23:32;101279.72;;;15.41;100.00
73240;BME280;61452;40.054;4.110;2024-01-16T10:28:40;101278.59;;;15.45;100.00
73240;BME280;61452;40.054;4.110;2024-01-16T10:33:42;101274.59;;;15.37;100.00
73240;BME280;61452;40.054;4.110;2024-01-16T10:38:45;101267.66;;;15.36;100.00
73240;BME280;61452;40.054;4.110;2024-01-16T10:43:47;101262.06;;;15.41;100.00
73240;BME280;61452;40.054;4.110;2024-01-16T10:49:04;101265.56;;;15.42;100.00
73240;BME280;61452;40.054;4.110;2024-01-16T10:54:12;101257.06;;;15.36;100.00
73240;BME280;61452;40.054;4.110;2024-01-16T10:59:21;101256.56;;;15.44;100.00
73240;BME280;61452;40.054;4.110;2024-01-16T11:04:27;101262.16;;;15.39;100.00
73240;BME280;61452;40.054;4.110;2024-01-16T11:09:31;101257.53;;;15.43;100.00
73240;BME280;61452;40.054;4.110;2024-01-16T11:14:34;101261.88;;;15.44;100.00
73240;BME280;61452;40.054;4.110;2024-01-16T11:19:37;101251.41;;;15.43;100.00
73240;BME280;61452;40.054;4.110;2024-01-16T11:25:13;101245.06;;;15.45;100.00
73240;BME280;61452;40.054;4.110;2024-01-16T11:30:29;101227.41;;;15.46;100.00
73240;BME280;61452;40.054;4.110;2024-01-16T11:35:36;101217.69;;;15.46;100.00
73240;BME280;61452;40.054;4.110;2024-01-16T11:40:39;101211.38;;;15.49;100.00
73240;BME280;61452;40.054;4.110;2024-01-16T11:45:48;101217.69;;;15.46;100.00
73240;BME280;61452;40.054;4.110;2024-01-16T11:50:52;101216.94;;;15.44;100.00
73240;BME280;61452;40.054;4.110;2024-01-16T11:56:07;101228.56;;;15.42;100.00
73240;BME280;61452;40.054;4.110;2024-01-16T12:01:14;101232.06;;;15.42;100.00
73240;BME280;61452;40.054;4.110;2024-01-16T12:06:18;101231.69;;;15.48;100.00
73240;BME280;61452;40.054;4.110;2024-01-16T12:11:20;101232.69;;;15.46;100.00
73240;BME280;61452;40.054;4.110;2024-01-16T12:16:30;101215.56;;;15.53;100.00
73240;BME280;61452;40.054;4.110;2024-01-16T12:21:34;101208.47;;;15.53;100.00
73240;BME280;61452;40.054;4.110;2024-01-16T12:26:38;101216.53;;;15.50;100.00
73240;BME280;61452;40.054;4.110;2024-01-16T12:31:41;101197.31;;;15.48;100.00
73240;BME280;61452;40.054;4.110;2024-01-16T12:36:43;101185.75;;;15.49;100.00
73240;BME280;61452;40.054;4.110;2024-01-16T12:41:47;101191.06;;;15.49;100.00
73240;BME280;61452;40.054;4.110;2024-01-16T12:46:56;101196.03;;;15.55;100.00
73240;BME280;61452;40.054;4.110;2024-01-16T12:52:18;101200.81;;;15.49;100.00
73240;BME280;61452;40.054;4.110;2024-01-16T12:57:20;101188.63;;;15.46;100.00
73240;BME280;61452;40.054;4.110;2024-01-16T13:02:24;101176.16;;;15.48;100.00
73240;BME280;61452;40.054;4.110;2024-01-16T13:07:27;101170.53;;;15.54;100.00
73240;BME280;61452;40.054;4.110;2024-01-16T13:12:30;101162.59;;;15.54;100.00
73240;BME280;61452;40.054;4.110;2024-01-16T13:17:35;101159.25;;;15.51;100.00
73240;BME280;61452;40.054;4.110;2024-01-16T13:22:38;101155.66;;;15.52;100.00
73240;BME280;61452;40.054;4.110;2024-01-16T13:27:48;101151.41;;;15.49;100.00
73240;BME280;61452;40.054;4.110;2024-01-16T13:32:50;101143.59;;;15.48;100.00
73240;BME280;61452;40.054;4.110;2024-01-16T13:37:52;101157.53;;;15.50;100.00
73240;BME280;61452;40.054;4.110;2024-01-16T13:42:54;101148.59;;;15.52;100.00
73240;BME280;61452;40.054;4.110;2024-01-16T13:47:56;101125.38;;;15.57;100.00
73240;BME280;61452;40.054;4.110;2024-01-16T13:53:02;101121.13;;;15.55;100.00
73240;BME280;61452;40.054;4.110;2024-01-16T13:58:04;101123.66;;;15.56;100.00
73240;BME280;61452;40.054;4.110;2024-01-16T14:03:06;101132.34;;;15.58;100.00
73240;BME280;61452;40.054;4.110;2024-01-16T14:08:09;101145.66;;;15.57;100.00
73240;BME280;61452;40.054;4.110;2024-01-16T14:13:15;101130.56;;;15.59;100.00
73240;BME280;61452;40.054;4.110;2024-01-16T14:18:17;101142.94;;;15.58;100.00
73240;BME280;61452;40.054;4.110;2024-01-16T14:23:19;101143.69;;;15.60;100.00
73240;BME280;61452;40.054;4.110;2024-01-16T14:28:22;101134.16;;;15.58;100.00
73240;BME280;61452;40.054;4.110;2024-01-16T14:33:30;101116.94;;;15.65;100.00
73240;BME280;61452;40.054;4.110;2024-01-16T14:38:32;101129.94;;;15.68;100.00
73240;BME280;61452;40.054;4.110;2024-01-16T14:43:34;101132.91;;;15.63;100.00
73240;BME280;61452;40.054;4.110;2024-01-16T14:48:45;101135.47;;;15.65;100.00
73240;BME280;61452;40.054;4.110;2024-01-16T14:53:48;101131.88;;;15.66;100.00
73240;BME280;61452;40.054;4.110;2024-01-16T14:58:50;101144.53;;;15.61;100.00
73240;BME280;61452;40.054;4.110;2024-01-16T15:03:52;101129.94;;;15.68;100.00
73240;BME280;61452;40.054;4.110;2024-01-16T15:08:55;101132.50;;;15.69;100.00
73240;BME280;61452;40.054;4.110;2024-01-16T15:13:58;101135.91;;;15.71;100.00
73240;BME280;61452;40.054;4.110;2024-01-16T15:19:01;101147.44;;;15.70;100.00
73240;BME280;61452;40.054;4.110;2024-01-16T15:24:03;101146.66;;;15.68;100.00
73240;BME280;61452;40.054;4.110;2024-01-16T15:29:05;101145.94;;;15.66;100.00
73240;BME280;61452;40.054;4.110;2024-01-16T15:34:10;101151.88;;;15.70;100.00
73240;BME280;61452;40.054;4.110;2024-01-16T15:39:17;101146.22;;;15.62;100.00
73240;BME280;61452;40.054;4.110;2024-01-16T15:44:20;101153.56;;;15.71;100.00
73240;BME280;61452;40.054;4.110;2024-01-16T15:49:23;101160.47;;;15.73;100.00
73240;BME280;61452;40.054;4.110;2024-01-16T15:54:26;101156.00;;;15.74;100.00
73240;BME280;61452;40.054;4.110;2024-01-16T15:59:29;101153.47;;;15.72;100.00
73240;BME280;61452;40.054;4.110;2024-01-16T16:04:31;101147.34;;;15.72;100.00
73240;BME280;61452;40.054;4.110;2024-01-16T16:09:34;101139.41;;;15.72;100.00
73240;BME280;61452;40.054;4.110;2024-01-16T16:14:37;101134.97;;;15.72;100.00
73240;BME280;61452;40.054;4.110;2024-01-16T16:19:42;101136.56;;;15.75;100.00
73240;BME280;61452;40.054;4.110;2024-01-16T16:24:44;101143.44;;;15.77;100.00
73240;BME280;61452;40.054;4.110;2024-01-16T16:29:46;101151.38;;;15.77;100.00
73240;BME280;61452;40.054;4.110;2024-01-16T16:34:48;101153.28;;;15.75;100.00
73240;BME280;61452;40.054;4.110;2024-01-16T16:39:51;101140.91;;;15.76;100.00
73240;BME280;61452;40.054;4.110;2024-01-16T16:44:53;101136.56;;;15.75;100.00
73240;BME280;61452;40.054;4.110;2024-01-16T16:49:56;101148.84;;;15.76;100.00
73240;BME280;61452;40.054;4.110;2024-01-16T16:54:59;101130.22;;;15.77;100.00
73240;BME280;61452;40.054;4.110;2024-01-16T17:00:01;101136.38;;;15.78;100.00
73240;BME280;61452;40.054;4.110;2024-01-16T17:05:04;101125.97;;;15.75;100.00
73240;BME280;61452;40.054;4.110;2024-01-16T17:10:06;101118.59;;;15.80;100.00
73240;BME280;61452;40.054;4.110;2024-01-16T17:15:09;101108.84;;;15.81;100.00
73240;BME280;61452;40.054;4.110;2024-01-16T17:20:11;101121.34;;;15.78;100.00
73240;BME280;61452;40.054;4.110;2024-01-16T17:25:14;101124.09;;;15.77;100.00
73240;BME280;61452;40.054;4.110;2024-01-16T17:30:16;101122.19;;;15.79;100.00
73240;BME280;61452;40.054;4.110;2024-01-16T17:35:19;101124.00;;;15.78;100.00
73240;BME280;61452;40.054;4.110;2024-01-16T17:40:23;101138.25;;;15.76;100.00
73240;BME280;61452;40.054;4.110;2024-01-16T17:45:25;101131.38;;;15.73;100.00
73240;BME280;61452;40.054;4.110;2024-01-16T17:50:27;101139.41;;;15.72;100.00
73240;BME280;61452;40.054;4.110;2024-01-16T17:55:30;101141.97;;;15.73;100.00
73240;BME280;61452;40.054;4.110;2024-01-16T18:00:35;101151.16;;;15.81;100.00
73240;BME280;61452;40.054;4.110;2024-01-16T18:05:37;101151.56;;;15.74;100.00
73240;BME280;61452;40.054;4.110;2024-01-16T18:10:39;101153.28;;;15.75;100.00
73240;BME280;61452;40.054;4.110;2024-01-16T18:15:43;101142.69;;;15.75;100.00
73240;BME280;61452;40.054;4.110;2024-01-16T18:20:45;101145.34;;;15.75;100.00
73240;BME280;61452;40.054;4.110;2024-01-16T18:25:48;101148.91;;;15.74;100.00
73240;BME280;61452;40.054;4.110;2024-01-16T18:30:50;101151.38;;;15.77;100.00
73240;BME280;61452;40.054;4.110;2024-01-16T18:35:53;101155.28;;;15.72;100.00
73240;BME280;61452;40.054;4.110;2024-01-16T18:41:00;101163.00;;;15.75;100.00
73240;BME280;61452;40.054;4.110;2024-01-16T18:46:02;101154.13;;;15.76;100.00
73240;BME280;61452;40.054;4.110;2024-01-16T18:51:05;101165.56;;;15.76;100.00
73240;BME280;61452;40.054;4.110;2024-01-16T18:56:12;101167.81;;;15.83;100.00
73240;BME280;61452;40.054;4.110;2024-01-16T19:01:15;101162.50;;;15.83;100.00
73240;BME280;61452;40.054;4.110;2024-01-16T19:06:17;101166.41;;;15.77;100.00
73240;BME280;61452;40.054;4.110;2024-01-16T19:11:19;101145.78;;;15.82;100.00
73240;BME280;61452;40.054;4.110;2024-01-16T19:16:22;101153.53;;;15.85;100.00
73240;BME280;61452;40.054;4.110;2024-01-16T19:21:24;101158.84;;;15.85;100.00
73240;BME280;61452;40.054;4.110;2024-01-16T19:26:26;101142.13;;;15.85;100.00
73240;BME280;61452;40.054;4.110;2024-01-16T19:31:29;101144.00;;;15.83;100.00
73240;BME280;61452;40.054;4.110;2024-01-16T19:36:34;101148.25;;;15.85;100.00
73240;BME280;61452;40.054;4.110;2024-01-16T19:41:36;101131.16;;;15.76;100.00
73240;BME280;61452;40.054;4.110;2024-01-16T19:46:42;101132.97;;;15.76;100.00
73240;BME280;61452;40.054;4.110;2024-01-16T19:51:45;101122.59;;;15.73;100.00
73240;BME280;61452;40.054;4.110;2024-01-16T19:56:47;101121.44;;;15.77;100.00
73240;BME280;61452;40.054;4.110;2024-01-16T20:01:49;101129.38;;;15.77;100.00
73240;BME280;61452;40.054;4.110;2024-01-16T20:06:51;101112.56;;;15.78;100.00
73240;BME280;61452;40.054;4.110;2024-01-16T20:11:55;101109.06;;;15.77;100.00
73240;BME280;61452;40.054;4.110;2024-01-16T20:17:01;101122.38;;;15.76;100.00
73240;BME280;61452;40.054;4.110;2024-01-16T20:22:03;101127.69;;;15.76;100.00
73240;BME280;61452;40.054;4.110;2024-01-16T20:27:06;101137.41;;;15.75;100.00
73240;BME280;61452;40.054;4.110;2024-01-16T20:32:09;101133.81;;;15.76;100.00
73240;BME280;61452;40.054;4.110;2024-01-16T20:37:11;101136.38;;;15.78;100.00
73240;BME280;61452;40.054;4.110;2024-01-16T20:42:15;101140.81;;;15.77;100.00
73240;BME280;61452;40.054;4.110;2024-01-16T20:47:17;101142.59;;;15.77;100.00
73240;BME280;61452;40.054;4.110;2024-01-16T20:52:19;101139.09;;;15.76;100.00
73240;BME280;61452;40.054;4.110;2024-01-16T20:57:23;101137.41;;;15.75;100.00
73240;BME280;61452;40.054;4.110;2024-01-16T21:02:26;101152.31;;;15.76;100.00
73240;BME280;61452;40.054;4.110;2024-01-16T21:07:28;101147.88;;;15.77;100.00
73240;BME280;61452;40.054;4.110;2024-01-16T21:12:30;101145.16;;;15.78;100.00
73240;BME280;61452;40.054;4.110;2024-01-16T21:17:32;101136.28;;;15.80;100.00
73240;BME280;61452;40.054;4.110;2024-01-16T21:22:35;101128.34;;;15.80;100.00
73240;BME280;61452;40.054;4.110;2024-01-16T21:27:37;101127.59;;;15.77;100.00
73240;BME280;61452;40.054;4.110;2024-01-16T21:32:40;101127.50;;;15.79;100.00
73240;BME280;61452;40.054;4.110;2024-01-16T21:37:43;101103.78;;;15.77;100.00
73240;BME280;61452;40.054;4.110;2024-01-16T21:42:45;101088.75;;;15.78;100.00
73240;BME280;61452;40.054;4.110;2024-01-16T21:47:47;101096.59;;;15.80;100.00
73240;BME280;61452;40.054;4.110;2024-01-16T21:52:50;101111.72;;;15.77;100.00
73240;BME280;61452;40.054;4.110;2024-01-16T21:57:52;101103.03;;;15.75;100.00
73240;BME280;61452;40.054;4.110;2024-01-16T22:02:54;101112.75;;;15.75;100.00
73240;BME280;61452;40.054;4.110;2024-01-16T22:07:59;101097.63;;;15.77;100.00
73240;BME280;61452;40.054;4.110;2024-01-16T22:13:01;101095.84;;;15.77;100.00
73240;BME280;61452;40.054;4.110;2024-01-16T22:18:04;101097.53;;;15.78;100.00
73240;BME280;61452;40.054;4.110;2024-01-16T22:23:06;101095.75;;;15.79;100.00
73240;BME280;61452;40.054;4.110;2024-01-16T22:28:08;101104.63;;;15.78;100.00
73240;BME280;61452;40.054;4.110;2024-01-16T22:33:11;101081.88;;;15.75;100.00
73240;BME280;61452;40.054;4.110;2024-01-16T22:38:14;101078.38;;;15.75;100.00
73240;BME280;61452;40.054;4.110;2024-01-16T22:43:17;101067.69;;;15.76;100.00
73240;BME280;61452;40.054;4.110;2024-01-16T22:48:19;101062.41;;;15.76;100.00
73240;BME280;61452;40.054;4.110;2024-01-16T22:53:21;101059.66;;;15.78;100.00
73240;BME280;61452;40.054;4.110;2024-01-16T22:58:24;101063.03;;;15.80;100.00
73240;BME280;61452;40.054;4.110;2024-01-16T23:03:26;101070.16;;;15.80;100.00
73240;BME280;61452;40.054;4.110;2024-01-16T23:08:29;101065.91;;;15.77;100.00
73240;BME280;61452;40.054;4.110;2024-01-16T23:13:31;101064.09;;;15.77;100.00
73240;BME280;61452;40.054;4.110;2024-01-16T23:18:34;101062.31;;;15.78;100.00
73240;BME280;61452;40.054;4.110;2024-01-16T23:23:40;101054.47;;;15.76;100.00
73240;BME280;61452;40.054;4.110;2024-01-16T23:28:44;101051.81;;;15.76;100.00
73240;BME280;61452;40.054;4.110;2024-01-16T23:33:46;101036.81;;;15.77;100.00
73240;BME280;61452;40.054;4.110;2024-01-16T23:38:48;101040.22;;;15.79;100.00
73240;BME280;61452;40.054;4.110;2024-01-16T23:43:50;101024.44;;;15.77;100.00
73240;BME280;61452;40.054;4.110;2024-01-16T23:48:53;101005.06;;;15.77;100.00
73240;BME280;61452;40.054;4.110;2024-01-16T23:54:01;101021.03;;;15.75;100.00
73240;BME280;61452;40.054;4.110;2024-01-16T23:59:04;101011.22;;;15.77;100.00
